createdAt,value
2023-03-29T00:00:33.093Z,92.50
2023-03-29T00:03:04.490Z,93.00
2023-03-29T00:05:35.245Z,92.80
2023-03-29T00:08:04.586Z,92.10
2023-03-29T00:10:34.091Z,90.00
2023-03-29T00:13:02.435Z,88.70
2023-03-29T00:15:31.319Z,88.50
2023-03-29T00:17:58.521Z,86.10
2023-03-29T00:20:25.980Z,85.00
2023-03-29T00:22:53.485Z,81.90
2023-03-29T00:25:22.953Z,79.20
2023-03-29T00:27:50.250Z,79.20
2023-03-29T00:30:17.811Z,80.60
2023-03-29T00:32:48.888Z,85.80
2023-03-29T00:35:17.225Z,86.20
2023-03-29T00:37:47.317Z,87.60
2023-03-29T00:40:15.783Z,89.80
2023-03-29T00:42:46.998Z,90.50
2023-03-29T00:45:26.943Z,90.80
2023-03-29T00:47:57.747Z,90.90
2023-03-29T00:50:31.781Z,90.70
2023-03-29T00:53:07.741Z,90.70
2023-03-29T00:55:43.700Z,90.90
2023-03-29T00:58:16.568Z,91.50
2023-03-29T01:00:52.721Z,92.50
2023-03-29T01:03:26.236Z,93.00
2023-03-29T01:06:00.476Z,93.60
2023-03-29T01:08:35.191Z,95.10
2023-03-29T01:11:10.277Z,96.00
2023-03-29T01:13:46.901Z,95.40
2023-03-29T01:16:17.326Z,94.70
2023-03-29T01:18:47.396Z,94.70
2023-03-29T01:21:38.225Z,94.60
2023-03-29T01:24:13.052Z,94.30
2023-03-29T01:27:06.420Z,94.40
2023-03-29T01:29:46.074Z,94.70
2023-03-29T01:32:26.141Z,95.00
2023-03-29T01:35:01.043Z,95.10
2023-03-29T01:37:39.688Z,95.60
2023-03-29T01:40:08.188Z,95.80
2023-03-29T01:43:05.855Z,96.30
2023-03-29T01:46:11.574Z,97.00
2023-03-29T01:48:49.273Z,97.40
2023-03-29T01:51:21.593Z,98.10
2023-03-29T01:54:14.188Z,98.70
2023-03-29T01:56:44.019Z,99.30
2023-03-29T01:59:15.687Z,99.90
2023-03-29T02:01:49.550Z,99.90
2023-03-29T02:04:22.068Z,99.90
2023-03-29T02:06:54.428Z,99.90
2023-03-29T02:09:23.716Z,99.90
2023-03-29T02:11:52.399Z,99.90
2023-03-29T02:14:20.577Z,99.90
2023-03-29T02:16:47.811Z,99.90
2023-03-29T02:19:15.632Z,99.90
2023-03-29T02:22:04.304Z,99.90
2023-03-29T02:24:33.944Z,99.90
2023-03-29T02:27:01.504Z,99.90
2023-03-29T02:29:28.955Z,99.90
2023-03-29T02:32:10.580Z,99.90
2023-03-29T02:34:43.969Z,99.90
2023-03-29T02:37:18.262Z,99.90
2023-03-29T02:39:48.992Z,99.90
2023-03-29T02:42:20.697Z,99.90
2023-03-29T02:44:51.507Z,99.90
2023-03-29T02:47:29.001Z,99.90
2023-03-29T02:49:56.754Z,99.90
2023-03-29T02:52:28.656Z,99.90
2023-03-29T02:54:57.213Z,99.90
2023-03-29T02:57:27.057Z,99.90
2023-03-29T02:59:57.380Z,99.90
2023-03-29T03:02:26.093Z,99.90
2023-03-29T03:04:53.890Z,99.90
2023-03-29T03:07:21.568Z,99.90
2023-03-29T03:09:49.182Z,99.90
2023-03-29T03:12:16.907Z,99.90
2023-03-29T03:14:46.989Z,99.90
2023-03-29T03:17:14.577Z,99.90
2023-03-29T03:19:42.096Z,99.90
2023-03-29T03:22:10.293Z,99.90
2023-03-29T03:24:38.028Z,99.90
2023-03-29T03:27:06.399Z,99.90
2023-03-29T03:29:33.741Z,99.90
2023-03-29T03:32:01.087Z,99.90
2023-03-29T03:34:28.314Z,99.90
2023-03-29T03:36:56.047Z,99.90
2023-03-29T03:39:23.581Z,99.90
2023-03-29T03:41:51.265Z,99.90
2023-03-29T03:44:19.324Z,99.90
2023-03-29T03:46:46.883Z,99.90
2023-03-29T03:49:14.535Z,99.90
2023-03-29T03:51:47.107Z,99.90
2023-03-29T03:54:22.827Z,99.90
2023-03-29T03:56:50.565Z,99.90
2023-03-29T03:59:18.351Z,99.90
2023-03-29T04:01:45.779Z,99.90
2023-03-29T04:04:15.004Z,99.90
2023-03-29T04:06:43.776Z,99.90
2023-03-29T04:09:11.386Z,99.90
2023-03-29T04:11:41.104Z,99.90
2023-03-29T04:14:08.210Z,99.90
2023-03-29T04:16:36.115Z,99.90
2023-03-29T04:19:06.242Z,99.90
2023-03-29T04:21:34.865Z,99.90
2023-03-29T04:24:05.593Z,99.90
2023-03-29T04:26:32.960Z,99.90
2023-03-29T04:29:00.877Z,99.90
2023-03-29T04:31:28.900Z,99.90
2023-03-29T04:33:59.106Z,99.90
2023-03-29T04:36:27.794Z,99.90
2023-03-29T04:38:54.917Z,99.90
2023-03-29T04:41:22.767Z,99.90
2023-03-29T04:43:50.239Z,99.90
2023-03-29T04:46:17.754Z,99.90
2023-03-29T04:48:45.790Z,99.90
2023-03-29T04:51:17.871Z,99.90
2023-03-29T04:53:45.034Z,99.90
2023-03-29T04:56:12.462Z,99.90
2023-03-29T04:58:39.776Z,99.90
2023-03-29T05:01:07.152Z,99.90
2023-03-29T05:03:34.504Z,99.90
2023-03-29T05:06:07.486Z,99.90
2023-03-29T05:08:39.450Z,99.90
2023-03-29T05:11:11.452Z,99.90
2023-03-29T05:13:42.028Z,99.90
2023-03-29T05:16:11.431Z,99.90
2023-03-29T05:18:38.901Z,99.90
2023-03-29T05:21:09.628Z,99.90
2023-03-29T05:23:37.655Z,99.90
2023-03-29T05:26:05.398Z,99.90
2023-03-29T05:28:34.034Z,99.90
2023-03-29T05:31:04.834Z,99.90
2023-03-29T05:33:32.714Z,99.90
2023-03-29T05:36:06.292Z,99.90
2023-03-29T05:38:34.060Z,99.90
2023-03-29T05:41:01.760Z,99.90
2023-03-29T05:43:29.407Z,99.90
2023-03-29T05:48:38.687Z,99.90
2023-03-29T05:51:09.037Z,99.90
2023-03-29T05:53:39.532Z,99.90
2023-03-29T05:56:08.868Z,99.90
2023-03-29T05:58:36.705Z,99.90
2023-03-29T06:01:05.421Z,99.90
2023-03-29T06:03:36.121Z,99.90
2023-03-29T06:06:04.352Z,99.90
2023-03-29T06:08:33.073Z,99.90
2023-03-29T06:11:04.341Z,99.90
2023-03-29T06:13:37.984Z,99.90
2023-03-29T06:16:09.476Z,99.90
2023-03-29T06:18:38.438Z,99.90
2023-03-29T06:21:09.660Z,99.90
2023-03-29T06:23:43.323Z,99.90
2023-03-29T06:26:10.963Z,99.90
2023-03-29T06:28:38.634Z,99.90
2023-03-29T06:31:16.558Z,99.90
2023-03-29T06:33:46.980Z,99.90
2023-03-29T06:36:17.134Z,99.90
2023-03-29T06:38:46.093Z,99.90
2023-03-29T06:41:13.503Z,99.90
2023-03-29T06:43:44.416Z,99.90
2023-03-29T06:46:14.675Z,99.90
2023-03-29T06:48:58.848Z,99.90
2023-03-29T06:51:28.245Z,99.90
2023-03-29T06:53:56.114Z,99.90
2023-03-29T06:56:24.273Z,99.90
2023-03-29T06:58:55.072Z,99.90
2023-03-29T07:01:23.034Z,99.90
2023-03-29T07:03:50.691Z,99.90
2023-03-29T07:06:20.737Z,99.90
2023-03-29T07:08:51.579Z,99.90
2023-03-29T07:11:20.826Z,99.90
2023-03-29T07:13:49.306Z,99.90
2023-03-29T07:16:17.686Z,99.90
2023-03-29T07:18:51.979Z,99.90
2023-03-29T07:21:20.654Z,99.90
2023-03-29T07:23:50.693Z,99.90
2023-03-29T07:26:28.776Z,99.90
2023-03-29T07:29:01.554Z,99.90
2023-03-29T07:31:30.040Z,99.90
2023-03-29T07:34:06.644Z,99.90
2023-03-29T07:36:35.647Z,99.90
2023-03-29T07:39:03.742Z,99.90
2023-03-29T07:41:31.334Z,99.90
2023-03-29T07:43:59.310Z,99.90
2023-03-29T07:46:28.304Z,99.90
2023-03-29T07:48:57.295Z,99.90
2023-03-29T07:51:25.098Z,99.90
2023-03-29T07:53:55.323Z,99.90
2023-03-29T07:56:23.172Z,99.90
2023-03-29T07:58:51.218Z,99.90
2023-03-29T08:01:20.026Z,99.90
2023-03-29T08:03:48.423Z,99.90
2023-03-29T08:06:17.066Z,99.90
2023-03-29T08:08:44.468Z,99.90
2023-03-29T08:11:11.817Z,99.90
2023-03-29T08:13:39.479Z,99.90
2023-03-29T08:16:08.540Z,99.90
2023-03-29T08:18:36.226Z,99.90
2023-03-29T08:21:03.869Z,99.90
2023-03-29T08:23:31.930Z,99.90
2023-03-29T08:25:59.604Z,99.90
2023-03-29T08:28:30.324Z,99.90
2023-03-29T08:33:39.314Z,99.90
2023-03-29T08:36:10.388Z,99.90
2023-03-29T08:38:38.370Z,99.90
2023-03-29T08:41:43.463Z,99.90
2023-03-29T08:44:20.718Z,99.90
2023-03-29T08:47:27.979Z,99.90
2023-03-29T08:49:59.355Z,99.90
2023-03-29T08:53:02.366Z,99.90
2023-03-29T08:55:42.324Z,99.90
2023-03-29T08:58:19.794Z,99.90
2023-03-29T09:00:57.795Z,99.90
2023-03-29T09:03:31.627Z,99.90
2023-03-29T09:06:08.264Z,99.90
2023-03-29T09:08:37.722Z,99.90
2023-03-29T09:11:29.700Z,99.90
2023-03-29T09:14:21.359Z,99.90
2023-03-29T09:16:59.065Z,99.90
2023-03-29T09:20:14.857Z,99.90
2023-03-29T09:23:04.924Z,99.90
2023-03-29T09:25:53.577Z,99.90
2023-03-29T09:28:38.461Z,99.90
2023-03-29T09:34:14.572Z,99.90
2023-03-29T09:37:11.131Z,99.90
2023-03-29T09:39:40.559Z,99.90
2023-03-29T09:42:09.535Z,99.90
2023-03-29T09:44:47.758Z,99.90
2023-03-29T09:47:41.048Z,99.90
2023-03-29T09:50:30.197Z,99.90
2023-03-29T09:53:01.746Z,99.90
2023-03-29T09:55:32.542Z,99.90
2023-03-29T09:58:16.576Z,99.90
2023-03-29T10:00:48.191Z,99.90
2023-03-29T10:03:27.644Z,99.90
2023-03-29T10:06:01.956Z,99.10
2023-03-29T10:08:42.000Z,98.90
2023-03-29T10:11:25.261Z,98.20
2023-03-29T10:13:57.608Z,98.20
2023-03-29T10:16:30.397Z,98.10
2023-03-29T10:19:24.311Z,97.90
2023-03-29T10:21:55.472Z,95.50
2023-03-29T10:24:26.063Z,95.30
2023-03-29T10:26:57.581Z,95.70
2023-03-29T10:29:28.061Z,95.50
2023-03-29T10:31:55.632Z,96.30
2023-03-29T10:34:26.375Z,97.10
2023-03-29T10:37:02.312Z,99.90
2023-03-29T10:39:34.257Z,99.90
2023-03-29T10:42:04.296Z,99.90
2023-03-29T10:44:34.670Z,99.90
2023-03-29T10:47:20.589Z,99.90
2023-03-29T10:49:57.114Z,99.90
2023-03-29T10:52:25.643Z,99.90
2023-03-29T10:54:59.749Z,99.90
2023-03-29T10:58:13.762Z,99.90
2023-03-29T11:00:54.730Z,99.90
2023-03-29T11:03:35.451Z,99.90
2023-03-29T11:06:21.142Z,99.90
2023-03-29T11:08:54.018Z,99.90
2023-03-29T11:11:41.393Z,99.90
2023-03-29T11:14:33.819Z,99.90
2023-03-29T11:17:22.928Z,99.90
2023-03-29T11:20:18.532Z,97.10
2023-03-29T11:23:12.744Z,94.90
2023-03-29T11:25:52.295Z,94.60
2023-03-29T11:28:53.338Z,93.80
2023-03-29T11:31:40.989Z,94.30
2023-03-29T11:34:30.033Z,93.00
2023-03-29T11:37:24.126Z,93.20
2023-03-29T11:39:54.571Z,92.60
2023-03-29T11:42:26.934Z,90.20
2023-03-29T11:44:58.306Z,86.50
2023-03-29T11:47:31.619Z,86.50
2023-03-29T11:50:06.690Z,85.00
2023-03-29T11:52:38.499Z,83.30
2023-03-29T11:55:12.481Z,82.90
2023-03-29T11:57:54.529Z,84.20
2023-03-29T12:00:31.265Z,85.00
2023-03-29T12:03:22.296Z,88.60
2023-03-29T12:06:19.493Z,90.30
2023-03-29T12:08:50.618Z,90.30
2023-03-29T12:11:35.258Z,90.20
2023-03-29T12:14:09.976Z,90.30
2023-03-29T12:20:17.857Z,89.50
2023-03-29T12:22:51.028Z,85.40
2023-03-29T12:25:25.169Z,85.40
2023-03-29T12:28:10.404Z,84.80
2023-03-29T12:31:16.705Z,84.90
2023-03-29T12:36:52.230Z,82.80
2023-03-29T12:39:21.196Z,81.40
2023-03-29T12:41:55.231Z,83.30
2023-03-29T12:44:28.755Z,81.80
2023-03-29T12:47:00.771Z,79.20
2023-03-29T12:49:30.355Z,77.30
2023-03-29T12:52:00.950Z,75.00
2023-03-29T12:54:32.558Z,71.60
2023-03-29T12:57:02.875Z,70.60
2023-03-29T12:59:47.943Z,70.00
2023-03-29T13:02:18.223Z,67.30
2023-03-29T13:04:55.598Z,63.30
2023-03-29T13:07:24.408Z,61.80
2023-03-29T13:09:57.443Z,61.80
2023-03-29T13:12:42.453Z,63.20
2023-03-29T13:15:18.215Z,64.30
2023-03-29T13:17:51.248Z,65.80
2023-03-29T13:20:39.831Z,67.00
2023-03-29T13:26:53.694Z,71.40
2023-03-29T13:33:32.193Z,70.70
2023-03-29T13:36:05.854Z,71.80
2023-03-29T13:38:46.508Z,71.30
2023-03-29T13:41:38.925Z,72.30
2023-03-29T13:44:34.169Z,72.70
2023-03-29T13:47:08.345Z,73.60
2023-03-29T13:49:39.774Z,74.90
2023-03-29T13:52:33.138Z,74.10
2023-03-29T13:55:10.617Z,73.30
2023-03-29T13:57:51.497Z,74.40
2023-03-29T14:00:28.808Z,75.20
2023-03-29T14:03:02.140Z,76.10
2023-03-29T14:05:39.820Z,76.40
2023-03-29T14:08:13.843Z,79.50
2023-03-29T14:10:44.530Z,80.60
2023-03-29T14:13:18.658Z,81.80
2023-03-29T14:15:54.471Z,81.90
2023-03-29T14:18:27.718Z,83.00
2023-03-29T14:21:09.025Z,83.00
2023-03-29T14:23:41.098Z,84.20
2023-03-29T14:26:20.745Z,86.30
2023-03-29T14:28:49.568Z,87.30
2023-03-29T14:31:26.952Z,88.30
2023-03-29T14:34:00.185Z,87.60
2023-03-29T14:36:38.845Z,84.70
2023-03-29T14:39:22.229Z,87.70
2023-03-29T14:41:59.725Z,86.50
2023-03-29T14:44:34.818Z,83.90
2023-03-29T14:47:03.390Z,82.30
2023-03-29T14:49:32.047Z,71.20
2023-03-29T14:52:00.719Z,65.90
2023-03-29T14:54:32.979Z,59.70
2023-03-29T14:57:06.208Z,56.90
2023-03-29T14:59:43.081Z,56.00
2023-03-29T15:02:30.483Z,56.40
2023-03-29T15:05:03.615Z,56.50
2023-03-29T15:07:31.779Z,57.10
2023-03-29T15:09:59.732Z,57.00
2023-03-29T15:12:36.118Z,57.40
2023-03-29T15:15:11.916Z,56.60
2023-03-29T15:17:51.180Z,57.80
2023-03-29T15:20:27.498Z,58.80
2023-03-29T15:23:00.137Z,57.50
2023-03-29T15:25:38.827Z,57.60
2023-03-29T15:28:06.444Z,58.70
2023-03-29T15:30:45.100Z,58.80
2023-03-29T15:33:24.777Z,58.30
2023-03-29T15:36:05.674Z,57.80
2023-03-29T15:38:43.082Z,58.10
2023-03-29T15:41:14.315Z,57.00
2023-03-29T15:43:43.612Z,57.40
2023-03-29T15:46:16.805Z,56.70
2023-03-29T15:48:50.078Z,56.30
2023-03-29T15:51:20.816Z,56.00
2023-03-29T15:53:57.144Z,56.10
2023-03-29T15:56:24.907Z,56.40
2023-03-29T15:58:52.607Z,55.70
2023-03-29T16:01:50.876Z,55.70
2023-03-29T16:04:25.773Z,56.10
2023-03-29T16:06:57.996Z,54.40
2023-03-29T16:09:34.863Z,55.00
2023-03-29T16:12:27.634Z,55.50
2023-03-29T16:15:00.149Z,55.40
2023-03-29T16:17:39.889Z,55.20
2023-03-29T16:20:09.127Z,55.30
2023-03-29T16:22:39.551Z,55.50
2023-03-29T16:25:18.023Z,55.20
2023-03-29T16:27:52.353Z,54.80
2023-03-29T16:31:01.824Z,54.80
2023-03-29T16:33:29.151Z,55.30
2023-03-29T16:35:56.515Z,56.10
2023-03-29T16:38:29.409Z,56.10
2023-03-29T16:40:57.585Z,56.90
2023-03-29T16:43:25.339Z,57.50
2023-03-29T16:45:53.021Z,58.60
2023-03-29T16:48:24.127Z,59.00
2023-03-29T16:50:51.569Z,60.20
2023-03-29T16:53:21.607Z,63.30
2023-03-29T16:55:49.715Z,63.00
2023-03-29T16:58:24.127Z,64.40
2023-03-29T17:00:54.779Z,65.80
2023-03-29T17:03:22.364Z,66.50
2023-03-29T17:05:52.315Z,68.30
2023-03-29T17:08:24.072Z,68.70
2023-03-29T17:10:55.756Z,69.20
2023-03-29T17:13:24.161Z,68.30
2023-03-29T17:15:53.090Z,69.00
2023-03-29T17:18:23.300Z,70.60
2023-03-29T17:20:54.064Z,71.10
2023-03-29T17:23:24.381Z,71.50
2023-03-29T17:26:02.417Z,71.10
2023-03-29T17:28:36.187Z,71.50
2023-03-29T17:31:07.318Z,72.10
2023-03-29T17:33:40.650Z,73.70
2023-03-29T17:36:11.559Z,74.10
2023-03-29T17:38:40.809Z,74.90
2023-03-29T17:41:08.625Z,74.10
2023-03-29T17:43:36.286Z,74.40
2023-03-29T17:46:07.057Z,74.10
2023-03-29T17:48:35.115Z,86.60
2023-03-29T17:51:07.569Z,82.20
2023-03-29T17:53:36.557Z,79.40
2023-03-29T17:56:04.172Z,67.40
2023-03-29T17:58:46.194Z,69.40
2023-03-29T18:01:19.856Z,69.50
2023-03-29T18:03:48.823Z,72.20
2023-03-29T18:06:19.689Z,74.00
2023-03-29T18:08:47.862Z,74.70
2023-03-29T18:11:22.506Z,76.50
2023-03-29T18:13:53.863Z,78.00
2023-03-29T18:16:22.561Z,79.30
2023-03-29T18:18:51.022Z,80.80
2023-03-29T18:21:18.453Z,82.40
2023-03-29T18:23:47.437Z,83.70
2023-03-29T18:26:16.527Z,85.30
2023-03-29T18:28:47.304Z,85.50
2023-03-29T18:31:20.164Z,85.90
2023-03-29T18:33:48.207Z,84.30
2023-03-29T18:36:17.992Z,84.50
2023-03-29T18:38:46.147Z,85.00
2023-03-29T18:41:14.578Z,86.30
2023-03-29T18:43:46.444Z,87.80
2023-03-29T18:46:13.875Z,88.90
2023-03-29T18:48:42.410Z,90.00
2023-03-29T18:51:11.872Z,90.60
2023-03-29T18:53:41.767Z,91.00
2023-03-29T18:56:09.864Z,91.40
2023-03-29T18:58:37.327Z,91.80
2023-03-29T19:01:06.126Z,91.80
2023-03-29T19:03:35.137Z,92.10
2023-03-29T19:06:02.964Z,92.60
2023-03-29T19:08:30.565Z,93.20
2023-03-29T19:11:04.528Z,93.50
2023-03-29T19:13:31.865Z,94.10
2023-03-29T19:16:02.344Z,94.50
2023-03-29T19:18:30.663Z,94.40
2023-03-29T19:20:59.160Z,94.60
2023-03-29T19:23:28.422Z,95.70
2023-03-29T19:25:58.668Z,96.90
2023-03-29T19:28:29.748Z,98.30
2023-03-29T19:31:00.919Z,98.70
2023-03-29T19:33:29.565Z,99.20
2023-03-29T19:35:57.120Z,99.90
2023-03-29T19:38:26.904Z,99.90
2023-03-29T19:40:54.040Z,99.90
2023-03-29T19:43:27.136Z,99.90
2023-03-29T19:45:54.635Z,99.90
2023-03-29T19:48:23.914Z,99.90
2023-03-29T19:50:55.273Z,99.90
2023-03-29T19:56:05.482Z,99.90
2023-03-29T19:58:32.791Z,99.90
2023-03-29T20:01:00.917Z,99.90
2023-03-29T20:03:28.685Z,99.90
2023-03-29T20:05:56.722Z,99.90
2023-03-29T20:08:25.038Z,99.90
2023-03-29T20:10:59.918Z,99.90
2023-03-29T20:13:37.503Z,99.90
2023-03-29T20:16:15.573Z,99.90
2023-03-29T20:18:45.294Z,99.90
2023-03-29T20:21:14.456Z,99.90
2023-03-29T20:23:41.532Z,99.90
2023-03-29T20:26:09.128Z,99.90
2023-03-29T20:28:41.877Z,99.90
2023-03-29T20:31:20.004Z,99.90
2023-03-29T20:33:47.613Z,99.90
2023-03-29T20:36:18.786Z,99.90
2023-03-29T20:38:46.310Z,99.90
2023-03-29T20:41:14.240Z,99.90
2023-03-29T20:43:41.555Z,99.90
2023-03-29T20:46:14.778Z,99.90
2023-03-29T20:48:54.673Z,99.90
2023-03-29T20:51:30.505Z,99.90
2023-03-29T20:54:04.865Z,99.90
2023-03-29T20:56:40.259Z,99.90
2023-03-29T20:59:10.950Z,99.90
2023-03-29T21:01:42.655Z,99.90
2023-03-29T21:04:11.187Z,99.90
2023-03-29T21:06:42.089Z,99.90
2023-03-29T21:09:09.153Z,99.90
2023-03-29T21:11:37.183Z,99.90
2023-03-29T21:14:05.215Z,99.90
2023-03-29T21:16:32.923Z,99.90
2023-03-29T21:19:00.668Z,99.90
2023-03-29T21:21:29.903Z,99.90
2023-03-29T21:23:57.394Z,99.90
2023-03-29T21:26:27.519Z,99.90
2023-03-29T21:28:54.917Z,99.90
2023-03-29T21:31:25.800Z,99.90
2023-03-29T21:33:56.503Z,99.90
2023-03-29T21:36:24.147Z,99.90
2023-03-29T21:38:52.407Z,99.90
2023-03-29T21:41:20.175Z,99.90
2023-03-29T21:43:47.892Z,99.90
2023-03-29T21:46:15.876Z,99.90
2023-03-29T21:48:43.122Z,99.90
2023-03-29T21:51:10.969Z,99.90
2023-03-29T21:53:38.231Z,99.90
2023-03-29T21:56:05.950Z,99.90
2023-03-29T21:58:33.621Z,99.90
2023-03-29T22:01:04.052Z,99.90
2023-03-29T22:03:32.316Z,99.90
2023-03-29T22:06:03.137Z,99.90
2023-03-29T22:08:31.340Z,99.90
2023-03-29T22:10:58.872Z,99.90
2023-03-29T22:13:28.747Z,99.90
2023-03-29T22:16:00.981Z,99.90
2023-03-29T22:18:43.240Z,99.90
2023-03-29T22:21:18.516Z,99.90
2023-03-29T22:23:50.656Z,99.90
2023-03-29T22:26:20.598Z,99.90
2023-03-29T22:28:48.250Z,99.90
2023-03-29T22:31:17.746Z,99.90
2023-03-29T22:33:45.725Z,99.90
2023-03-29T22:36:23.987Z,99.90
2023-03-29T22:38:51.953Z,99.90
2023-03-29T22:41:21.808Z,99.90
2023-03-29T22:43:54.435Z,99.90
2023-03-29T22:46:25.112Z,99.90
2023-03-29T22:48:52.623Z,99.90
2023-03-29T22:51:28.569Z,99.90
2023-03-29T22:53:55.996Z,99.90
2023-03-29T22:56:23.394Z,99.90
2023-03-29T22:58:50.765Z,99.90
2023-03-29T23:01:17.979Z,99.90
2023-03-29T23:03:45.359Z,99.90
2023-03-29T23:06:12.857Z,99.90
2023-03-29T23:08:43.529Z,99.90
2023-03-29T23:11:11.760Z,99.90
2023-03-29T23:13:49.627Z,99.90
2023-03-29T23:16:23.037Z,99.90
2023-03-29T23:18:53.556Z,99.90
2023-03-29T23:21:20.636Z,99.90
2023-03-29T23:23:48.300Z,99.90
2023-03-29T23:26:16.166Z,99.90
2023-03-29T23:28:43.572Z,99.90
2023-03-29T23:31:13.996Z,99.90
2023-03-29T23:33:42.946Z,99.90
2023-03-29T23:36:18.416Z,99.90
2023-03-29T23:38:47.305Z,99.90
2023-03-29T23:41:15.195Z,99.90
2023-03-29T23:43:44.284Z,99.90
2023-03-29T23:46:16.901Z,99.90
2023-03-29T23:48:49.247Z,99.90
2023-03-29T23:51:19.051Z,99.90
2023-03-29T23:53:46.715Z,99.90
2023-03-29T23:56:14.398Z,99.90
2023-03-29T23:58:41.574Z,99.90
